Time;durP1;ratioP1;P1;durP2;ratioP2;P2;SDS_P1;SDS_P2;PMS_P1;PMS_P2;Temp;Humidity;BMP_temperature;BMP_pressure;BME280_temperature;BME280_humidity;BME280_pressure;Samples;Min_cycle;Max_cycle;Signal;HPM_P1;HPM_P2
2022/11/19 00:00:45;;;;;;;5.90;2.47;;;2.20;99.90;;;;;;5112803;28;20112;-71
2022/11/19 00:03:12;;;;;;;5.60;2.70;;;2.20;99.90;;;;;;5111691;28;20035;-71
2022/11/19 00:05:39;;;;;;;5.90;2.85;;;2.20;99.90;;;;;;5095035;28;20047;-71
2022/11/19 00:08:04;;;;;;;5.60;2.85;;;2.20;99.90;;;;;;5112485;28;20050;-70
2022/11/19 00:10:33;;;;;;;6.50;3.35;;;2.20;99.90;;;;;;5112024;28;20047;-71
2022/11/19 00:12:59;;;;;;;6.95;2.80;;;2.20;99.90;;;;;;5112879;28;20387;-71
2022/11/19 00:15:25;;;;;;;5.88;2.67;;;2.20;99.90;;;;;;5111501;28;20036;-71
2022/11/19 00:17:50;;;;;;;5.53;2.80;;;2.20;99.90;;;;;;5111722;28;20071;-71
2022/11/19 00:20:16;;;;;;;5.93;3.08;;;2.10;99.90;;;;;;5113576;28;20032;-70
2022/11/19 00:22:42;;;;;;;9.18;2.88;;;2.10;99.90;;;;;;5112553;28;20036;-71
2022/11/19 00:25:09;;;;;;;5.70;2.80;;;2.10;99.90;;;;;;5112012;28;20047;-70
2022/11/19 00:27:35;;;;;;;6.35;3.00;;;2.10;99.90;;;;;;5112696;28;20031;-71
2022/11/19 00:30:01;;;;;;;5.80;2.85;;;2.00;99.90;;;;;;5112398;28;20043;-71
2022/11/19 00:32:27;;;;;;;7.35;3.58;;;2.00;99.90;;;;;;5112464;28;20043;-71
2022/11/19 00:34:52;;;;;;;6.30;3.25;;;1.90;99.90;;;;;;5111469;28;20058;-71
2022/11/19 00:37:18;;;;;;;6.70;3.50;;;1.90;99.90;;;;;;5110932;28;20141;-71
2022/11/19 00:39:44;;;;;;;6.47;3.20;;;1.90;99.90;;;;;;5111461;28;20031;-71
2022/11/19 00:42:09;;;;;;;5.93;2.88;;;1.80;99.90;;;;;;5112693;28;20035;-71
2022/11/19 00:44:35;;;;;;;7.85;2.95;;;1.80;99.90;;;;;;5110728;28;20377;-71
2022/11/19 00:47:01;;;;;;;8.18;3.60;;;1.80;99.90;;;;;;5111913;28;20043;-71
2022/11/19 00:49:26;;;;;;;6.40;2.97;;;1.70;99.90;;;;;;5111380;28;20111;-71
2022/11/19 00:51:52;;;;;;;5.88;3.13;;;1.70;99.90;;;;;;5110365;28;20039;-71
2022/11/19 00:54:18;;;;;;;5.60;2.88;;;1.70;99.90;;;;;;5094951;28;20454;-71
2022/11/19 00:56:44;;;;;;;5.90;2.80;;;1.70;99.90;;;;;;5112406;28;20074;-70
2022/11/19 00:59:09;;;;;;;6.93;3.10;;;1.70;99.90;;;;;;5113182;28;20032;-70
2022/11/19 01:01:35;;;;;;;6.05;2.80;;;1.60;99.90;;;;;;5111990;28;20460;-71
2022/11/19 01:04:00;;;;;;;6.35;3.50;;;1.60;99.90;;;;;;5111628;28;20373;-71
2022/11/19 01:06:27;;;;;;;7.45;3.80;;;1.60;99.90;;;;;;5113156;28;20476;-70
2022/11/19 01:08:53;;;;;;;5.55;2.80;;;1.60;99.90;;;;;;5112764;28;20044;-71
2022/11/19 01:11:21;;;;;;;6.50;3.33;;;1.50;99.90;;;;;;5110408;28;20036;-70
2022/11/19 01:13:47;;;;;;;8.48;2.97;;;1.50;99.90;;;;;;5112729;28;20031;-70
2022/11/19 01:16:19;;;;;;;5.80;2.80;;;1.40;99.90;;;;;;5110531;28;20381;-70
2022/11/19 01:18:47;;;;;;;6.88;3.22;;;1.40;99.90;;;;;;5110852;28;20044;-70
2022/11/19 01:21:13;;;;;;;6.22;2.85;;;1.30;99.90;;;;;;5110954;28;20039;-70
2022/11/19 01:23:41;;;;;;;6.18;3.28;;;1.20;99.90;;;;;;5112244;28;20532;-70
2022/11/19 01:26:07;;;;;;;6.40;3.47;;;1.20;99.90;;;;;;5114171;28;20039;-70
2022/11/19 01:28:33;;;;;;;6.13;3.10;;;1.20;99.90;;;;;;5116642;28;20050;-70
2022/11/19 01:30:59;;;;;;;7.88;3.35;;;1.10;99.90;;;;;;5114581;28;20040;-71
2022/11/19 01:33:25;;;;;;;7.03;3.28;;;1.00;99.90;;;;;;5114095;28;20043;-71
2022/11/19 01:35:58;;;;;;;7.72;3.58;;;1.00;99.90;;;;;;5115155;28;20096;-70
2022/11/19 01:38:25;;;;;;;6.68;3.42;;;0.90;99.90;;;;;;5098003;28;20047;-70
2022/11/19 01:40:51;;;;;;;6.28;3.25;;;1.00;99.90;;;;;;5113644;28;20036;-70
2022/11/19 01:43:16;;;;;;;6.65;3.50;;;0.90;99.90;;;;;;5095829;28;20480;-71
2022/11/19 01:45:48;;;;;;;7.95;3.90;;;0.90;99.90;;;;;;5094513;28;20089;-70
2022/11/19 01:48:20;;;;;;;7.15;3.65;;;0.90;99.90;;;;;;5094908;28;20047;-70
2022/11/19 01:50:53;;;;;;;7.80;4.28;;;0.90;99.90;;;;;;5110714;28;20042;-70
2022/11/19 01:53:23;;;;;;;7.13;3.35;;;0.90;99.90;;;;;;5094826;28;20114;-70
2022/11/19 01:55:50;;;;;;;7.18;4.03;;;0.90;99.90;;;;;;5094009;28;20051;-70
2022/11/19 01:58:18;;;;;;;6.07;3.05;;;0.90;99.90;;;;;;5095574;28;20036;-70
2022/11/19 02:00:47;;;;;;;7.63;3.95;;;0.90;99.90;;;;;;5094977;28;20028;-70
2022/11/19 02:03:15;;;;;;;7.10;3.45;;;0.90;99.90;;;;;;5113500;28;20046;-70
2022/11/19 02:05:42;;;;;;;7.75;3.97;;;0.80;99.90;;;;;;5115879;28;20044;-70
2022/11/19 02:08:28;;;;;;;8.80;4.15;;;0.80;99.90;;;;;;5114730;28;20043;-70
2022/11/19 02:11:08;;;;;;;7.30;4.00;;;0.80;99.90;;;;;;5114339;28;20041;-70
2022/11/19 02:14:03;;;;;;;9.48;4.10;;;0.80;99.90;;;;;;5114638;28;20058;-70
2022/11/19 02:16:38;;;;;;;7.43;3.92;;;0.80;99.90;;;;;;5077109;28;20048;-70
2022/11/19 02:19:40;;;;;;;8.00;4.32;;;0.80;99.90;;;;;;5113953;28;20122;-70
2022/11/19 02:22:51;;;;;;;7.75;3.67;;;0.70;99.90;;;;;;5095953;28;20082;-70
2022/11/19 02:25:37;;;;;;;8.27;3.90;;;0.70;99.90;;;;;;5082764;28;20054;-69
2022/11/19 02:28:30;;;;;;;6.70;3.33;;;0.70;99.90;;;;;;5096877;28;20039;-70
2022/11/19 02:31:22;;;;;;;7.85;3.42;;;0.70;99.90;;;;;;5115199;28;20101;-70
2022/11/19 02:33:54;;;;;;;8.07;4.25;;;0.60;99.90;;;;;;5114951;28;20077;-69
2022/11/19 02:36:47;;;;;;;6.53;3.40;;;0.60;99.90;;;;;;5111808;28;20051;-70
2022/11/19 02:39:29;;;;;;;8.40;4.25;;;0.60;99.90;;;;;;5113778;28;20035;-70
2022/11/19 02:42:26;;;;;;;8.85;4.78;;;0.60;99.90;;;;;;5115405;28;20036;-70
2022/11/19 02:45:13;;;;;;;8.23;4.18;;;0.60;99.90;;;;;;5107037;28;20075;-70
2022/11/19 02:47:57;;;;;;;8.25;4.03;;;0.50;99.90;;;;;;5114157;28;20089;-69
2022/11/19 02:50:34;;;;;;;8.70;4.20;;;0.50;99.90;;;;;;5112758;28;20043;-70
2022/11/19 02:53:02;;;;;;;9.98;4.45;;;0.50;99.90;;;;;;5101271;28;20092;-70
2022/11/19 02:55:27;;;;;;;7.55;3.55;;;0.50;99.90;;;;;;5113379;28;20040;-70
2022/11/19 03:04:28;;;;;;;8.82;3.80;;;0.50;99.90;;;;;;5112520;28;20042;-70
2022/11/19 03:06:33;;;;;;;9.10;4.20;;;0.40;99.90;;;;;;5114680;28;20445;-70
2022/11/19 03:08:59;;;;;;;7.18;3.83;;;0.40;99.90;;;;;;5096252;28;20408;-70
2022/11/19 03:11:29;;;;;;;8.77;4.32;;;0.30;99.90;;;;;;5113693;28;20563;-70
2022/11/19 03:17:15;;;;;;;11.20;4.93;;;0.30;99.90;;;;;;5112678;28;20051;-70
2022/11/19 03:20:00;;;;;;;7.40;3.67;;;0.20;99.90;;;;;;5112841;28;20463;-70
2022/11/19 03:22:28;;;;;;;8.32;3.95;;;0.20;99.90;;;;;;5112760;28;20051;-70
2022/11/19 03:25:08;;;;;;;8.48;4.38;;;0.10;99.90;;;;;;5112429;28;20043;-70
2022/11/19 03:27:43;;;;;;;8.63;4.82;;;0.10;99.90;;;;;;5096252;28;20077;-70
2022/11/19 03:30:10;;;;;;;9.20;4.25;;;0.10;99.90;;;;;;5112637;28;20036;-70
2022/11/19 03:32:53;;;;;;;10.40;6.93;;;0.10;99.90;;;;;;5112187;28;20047;-70
2022/11/19 03:35:24;;;;;;;9.20;4.93;;;0.10;99.90;;;;;;5095518;28;20488;-71
2022/11/19 03:37:54;;;;;;;7.72;4.20;;;0.00;99.90;;;;;;5113740;28;20089;-71
2022/11/19 03:40:22;;;;;;;10.07;4.70;;;0.00;99.90;;;;;;5111871;28;20122;-71
2022/11/19 03:42:51;;;;;;;9.30;4.82;;;0.00;99.90;;;;;;5112253;28;20064;-70
2022/11/19 03:45:27;;;;;;;8.32;4.03;;;-0.10;99.90;;;;;;5112688;28;20127;-70
2022/11/19 03:47:56;;;;;;;8.77;4.65;;;-0.10;99.90;;;;;;5113008;28;20369;-70
2022/11/19 03:50:24;;;;;;;8.85;4.30;;;-0.10;99.90;;;;;;5112430;28;20488;-70
2022/11/19 03:52:50;;;;;;;7.90;4.18;;;-0.20;99.90;;;;;;5111725;28;20079;-70
2022/11/19 03:55:16;;;;;;;8.13;3.83;;;-0.20;99.90;;;;;;5112219;28;20086;-70
2022/11/19 03:57:42;;;;;;;7.90;4.10;;;-0.20;99.90;;;;;;5095745;28;20362;-70
2022/11/19 04:00:09;;;;;;;7.05;4.35;;;-0.20;99.90;;;;;;5111318;28;20051;-71
2022/11/19 04:02:35;;;;;;;13.18;4.07;;;-0.20;99.90;;;;;;5112141;28;20032;-71
2022/11/19 04:05:01;;;;;;;9.30;3.80;;;-0.20;99.90;;;;;;5113287;28;20126;-71
2022/11/19 04:07:26;;;;;;;8.20;4.25;;;-0.20;99.90;;;;;;5111300;28;20043;-71
2022/11/19 04:09:52;;;;;;;9.30;4.50;;;-0.30;99.90;;;;;;5112952;28;20031;-71
2022/11/19 04:12:23;;;;;;;8.55;4.32;;;-0.30;99.90;;;;;;5111821;28;20036;-71
2022/11/19 04:14:50;;;;;;;8.75;4.55;;;-0.30;99.90;;;;;;5110900;28;20472;-71
2022/11/19 04:17:17;;;;;;;8.63;4.38;;;-0.30;99.90;;;;;;5111547;28;20046;-71
2022/11/19 04:19:43;;;;;;;8.18;4.30;;;-0.30;99.90;;;;;;5112424;28;20073;-71
2022/11/19 04:22:09;;;;;;;8.85;4.10;;;-0.30;99.90;;;;;;5110999;28;20376;-70
2022/11/19 04:24:34;;;;;;;7.53;3.95;;;-0.30;99.90;;;;;;5111641;28;20054;-71
2022/11/19 04:27:00;;;;;;;8.73;4.68;;;-0.40;99.90;;;;;;5111806;28;20048;-71
2022/11/19 04:29:26;;;;;;;7.63;4.50;;;-0.40;99.90;;;;;;5112351;28;20124;-71
2022/11/19 04:31:52;;;;;;;8.48;4.00;;;-0.40;99.90;;;;;;5111705;28;20043;-70
2022/11/19 04:34:18;;;;;;;8.00;4.10;;;-0.40;99.90;;;;;;5112246;28;20154;-71
2022/11/19 04:36:44;;;;;;;8.15;4.70;;;-0.40;99.90;;;;;;5110946;28;20043;-71
2022/11/19 04:39:11;;;;;;;8.02;4.07;;;-0.40;99.90;;;;;;5112551;28;20430;-71
2022/11/19 04:41:38;;;;;;;8.73;4.40;;;-0.40;99.90;;;;;;5111617;28;20043;-71
2022/11/19 04:44:04;;;;;;;8.18;3.75;;;-0.40;99.90;;;;;;5093485;28;20032;-71
2022/11/19 04:46:30;;;;;;;8.55;3.85;;;-0.40;99.90;;;;;;5111604;28;20075;-71
2022/11/19 04:48:56;;;;;;;8.95;4.30;;;-0.40;99.90;;;;;;5112353;28;20068;-70
2022/11/19 04:51:22;;;;;;;8.45;4.30;;;-0.40;99.90;;;;;;5111390;28;20036;-71
2022/11/19 04:53:48;;;;;;;8.13;4.32;;;-0.40;99.90;;;;;;5111514;28;20135;-70
2022/11/19 04:56:14;;;;;;;8.75;4.13;;;-0.50;99.90;;;;;;5093298;28;20126;-71
2022/11/19 04:58:39;;;;;;;9.52;4.50;;;-0.50;99.90;;;;;;5111072;28;20035;-71
2022/11/19 05:01:05;;;;;;;10.38;4.60;;;-0.50;99.90;;;;;;5111178;28;20041;-71
2022/11/19 05:03:31;;;;;;;8.27;4.47;;;-0.50;99.90;;;;;;5111723;28;20480;-71
2022/11/19 05:05:57;;;;;;;8.73;4.72;;;-0.50;99.90;;;;;;5110983;28;20118;-71
2022/11/19 05:08:23;;;;;;;8.40;4.05;;;-0.50;99.90;;;;;;5112491;28;20118;-71
2022/11/19 05:10:48;;;;;;;9.23;4.22;;;-0.50;99.90;;;;;;5111736;28;20119;-71
2022/11/19 05:13:14;;;;;;;7.97;4.38;;;-0.60;99.90;;;;;;5093985;28;20532;-70
2022/11/19 05:15:40;;;;;;;8.50;4.35;;;-0.60;99.90;;;;;;5094474;28;20114;-70
2022/11/19 05:18:06;;;;;;;8.05;4.03;;;-0.60;99.90;;;;;;5111388;28;20450;-71
2022/11/19 05:20:31;;;;;;;8.65;4.13;;;-0.60;99.90;;;;;;5094357;28;20477;-70
2022/11/19 05:22:57;;;;;;;9.25;4.47;;;-0.60;99.90;;;;;;5093363;28;20043;-71
2022/11/19 05:25:23;;;;;;;7.43;4.18;;;-0.60;99.90;;;;;;5110542;28;20506;-71
2022/11/19 05:27:48;;;;;;;7.45;3.95;;;-0.60;99.90;;;;;;5111656;28;20399;-71
2022/11/19 05:30:15;;;;;;;7.15;4.22;;;-0.60;99.90;;;;;;5111719;28;20476;-71
2022/11/19 05:32:41;;;;;;;6.97;3.60;;;-0.60;99.90;;;;;;5111013;28;20050;-71
2022/11/19 05:35:07;;;;;;;7.82;3.92;;;-0.70;99.90;;;;;;5112252;28;20055;-71
2022/11/19 05:37:33;;;;;;;13.48;5.05;;;-0.70;99.90;;;;;;5111582;28;20176;-71
2022/11/19 05:39:58;;;;;;;8.82;4.55;;;-0.70;99.90;;;;;;5111023;28;20122;-71
2022/11/19 05:42:24;;;;;;;8.50;3.50;;;-0.70;99.90;;;;;;5110682;28;20035;-70
2022/11/19 05:44:50;;;;;;;7.43;4.07;;;-0.70;99.90;;;;;;5111255;28;20498;-70
2022/11/19 05:47:16;;;;;;;7.97;4.25;;;-0.70;99.90;;;;;;5110008;28;20047;-70
2022/11/19 05:49:42;;;;;;;12.38;6.28;;;-0.70;99.90;;;;;;5111223;28;20089;-70
2022/11/19 05:52:07;;;;;;;27.65;15.18;;;-0.70;99.90;;;;;;5093408;28;20028;-70
2022/11/19 05:54:33;;;;;;;24.02;12.88;;;-0.70;99.90;;;;;;5110353;28;20047;-70
2022/11/19 05:56:59;;;;;;;29.13;16.08;;;-0.70;99.90;;;;;;5112690;28;20039;-70
2022/11/19 05:59:24;;;;;;;11.68;7.40;;;-0.70;99.90;;;;;;5109687;28;20043;-69
2022/11/19 06:01:50;;;;;;;10.90;6.53;;;-0.70;99.90;;;;;;5111122;28;20092;-69
2022/11/19 06:04:16;;;;;;;23.63;12.07;;;-0.80;99.90;;;;;;5110630;28;20384;-70
2022/11/19 06:06:42;;;;;;;18.42;9.93;;;-0.80;99.90;;;;;;5110392;28;20048;-69
2022/11/19 06:09:08;;;;;;;22.67;12.55;;;-0.70;99.90;;;;;;5110787;28;20441;-70
2022/11/19 06:11:49;;;;;;;17.65;10.88;;;-0.80;99.90;;;;;;5114252;28;20571;-69
2022/11/19 06:14:21;;;;;;;24.33;13.07;;;-0.70;99.90;;;;;;5114344;28;20092;-70
2022/11/19 06:16:58;;;;;;;13.70;7.72;;;-0.80;99.90;;;;;;5114189;28;20046;-70
2022/11/19 06:19:24;;;;;;;12.20;6.95;;;-0.80;99.90;;;;;;5114655;28;20670;-70
2022/11/19 06:21:51;;;;;;;9.95;5.68;;;-0.80;99.90;;;;;;5113781;28;20096;-70
2022/11/19 06:24:17;;;;;;;9.50;6.45;;;-0.80;99.90;;;;;;5113817;28;20047;-70
2022/11/19 06:26:42;;;;;;;10.82;7.45;;;-0.80;99.90;;;;;;5114629;28;20050;-70
2022/11/19 06:29:11;;;;;;;9.07;5.78;;;-0.80;99.90;;;;;;5113255;28;20031;-70
2022/11/19 06:31:37;;;;;;;8.40;4.82;;;-0.80;99.90;;;;;;5114234;28;20058;-70
2022/11/19 06:34:02;;;;;;;7.82;5.28;;;-0.80;99.90;;;;;;5113815;28;20047;-69
2022/11/19 06:36:28;;;;;;;9.93;6.07;;;-0.80;99.90;;;;;;5113612;28;20038;-69
2022/11/19 06:38:54;;;;;;;9.20;5.60;;;-0.80;99.90;;;;;;5114980;28;20601;-70
2022/11/19 06:41:19;;;;;;;10.65;5.10;;;-0.80;99.90;;;;;;5113470;28;20043;-70
2022/11/19 06:43:45;;;;;;;13.55;7.50;;;-0.90;99.90;;;;;;5113288;28;20028;-70
2022/11/19 06:46:12;;;;;;;10.10;5.35;;;-0.90;99.90;;;;;;5095986;28;20043;-70
2022/11/19 06:48:38;;;;;;;7.90;4.75;;;-0.90;99.90;;;;;;5113072;28;20051;-72
2022/11/19 06:51:03;;;;;;;9.05;5.18;;;-0.90;99.90;;;;;;5115051;28;20044;-69
2022/11/19 06:53:29;;;;;;;10.18;6.07;;;-0.90;99.90;;;;;;5114955;28;20039;-71
2022/11/19 06:55:56;;;;;;;16.38;8.07;;;-0.90;99.90;;;;;;5114344;28;20079;-70
2022/11/19 06:58:22;;;;;;;9.00;5.32;;;-0.90;99.90;;;;;;5112373;28;20110;-69
2022/11/19 07:00:48;;;;;;;10.45;6.53;;;-0.90;99.90;;;;;;5113858;28;20071;-69
2022/11/19 07:03:14;;;;;;;11.55;7.50;;;-0.90;99.90;;;;;;5112552;28;20032;-69
2022/11/19 07:05:40;;;;;;;12.27;7.88;;;-0.90;99.90;;;;;;5113573;28;20127;-69
2022/11/19 07:08:06;;;;;;;9.43;5.32;;;-0.90;99.90;;;;;;5112660;28;20053;-69
2022/11/19 07:10:32;;;;;;;9.85;5.13;;;-0.90;99.90;;;;;;5114167;28;20111;-69
2022/11/19 07:12:59;;;;;;;10.38;5.30;;;-0.90;99.90;;;;;;5113627;28;20040;-69
2022/11/19 07:15:25;;;;;;;9.55;6.00;;;-0.90;99.90;;;;;;5113206;28;20035;-69
2022/11/19 07:17:50;;;;;;;10.20;6.40;;;-1.00;99.90;;;;;;5112513;28;20492;-69
2022/11/19 07:20:16;;;;;;;11.02;7.35;;;-0.90;99.90;;;;;;5112817;28;20483;-69
2022/11/19 07:22:42;;;;;;;11.88;7.00;;;-1.00;99.90;;;;;;5095715;27;20031;-69
2022/11/19 07:25:11;;;;;;;16.63;10.73;;;-1.00;99.90;;;;;;5111909;28;20039;-69
2022/11/19 07:27:37;;;;;;;15.93;8.88;;;-1.00;99.90;;;;;;5114570;27;20046;-69
2022/11/19 07:30:04;;;;;;;18.20;9.60;;;-1.00;99.90;;;;;;5112672;28;20035;-69
2022/11/19 07:32:30;;;;;;;13.95;7.15;;;-1.00;99.90;;;;;;5112531;28;20043;-68
2022/11/19 07:34:56;;;;;;;14.65;9.68;;;-0.90;99.90;;;;;;5112455;28;20408;-69
2022/11/19 07:37:22;;;;;;;18.42;12.93;;;-0.90;99.90;;;;;;5113634;28;20172;-69
2022/11/19 07:39:48;;;;;;;11.65;7.80;;;-0.90;99.90;;;;;;5109256;28;20028;-69
2022/11/19 07:44:57;;;;;;;10.15;5.80;;;-0.90;99.90;;;;;;5110876;28;20577;-69
2022/11/19 07:47:23;;;;;;;10.25;5.70;;;-0.90;99.90;;;;;;5110784;28;20035;-69
2022/11/19 07:49:48;;;;;;;9.05;4.55;;;-0.90;99.90;;;;;;5111546;28;20043;-69
2022/11/19 07:52:14;;;;;;;8.45;4.85;;;-0.90;99.90;;;;;;5108658;28;20072;-69
2022/11/19 07:54:40;;;;;;;13.43;5.65;;;-0.90;99.90;;;;;;5109350;28;20042;-69
2022/11/19 07:57:06;;;;;;;8.05;4.53;;;-0.80;99.90;;;;;;5092485;28;20039;-69
2022/11/19 07:59:32;;;;;;;9.98;6.22;;;-0.80;99.90;;;;;;5107853;28;20043;-69
2022/11/19 08:01:57;;;;;;;9.82;5.38;;;-0.80;99.90;;;;;;5110004;28;20066;-70
2022/11/19 08:04:23;;;;;;;8.57;4.53;;;-0.80;99.90;;;;;;5109087;28;20646;-70
2022/11/19 08:06:49;;;;;;;8.98;4.63;;;-0.80;99.90;;;;;;5091958;28;20487;-70
2022/11/19 08:09:15;;;;;;;8.40;4.63;;;-0.80;99.90;;;;;;5109515;28;20097;-71
2022/11/19 08:11:41;;;;;;;8.50;4.45;;;-0.70;99.90;;;;;;5109024;28;20488;-69
2022/11/19 08:14:07;;;;;;;10.73;5.32;;;-0.70;99.90;;;;;;5091048;28;20050;-70
2022/11/19 08:19:17;;;;;;;10.00;4.97;;;-0.70;99.90;;;;;;5110350;28;20403;-70
2022/11/19 08:21:45;;;;;;;9.55;4.90;;;-0.70;99.90;;;;;;5092262;28;20040;-69
2022/11/19 08:24:12;;;;;;;9.02;4.80;;;-0.60;99.90;;;;;;5092068;28;20079;-70
2022/11/19 08:26:38;;;;;;;10.55;5.68;;;-0.60;99.90;;;;;;5109652;28;20047;-69
2022/11/19 08:29:04;;;;;;;8.18;4.35;;;-0.60;99.90;;;;;;5108335;28;20044;-69
2022/11/19 08:31:30;;;;;;;7.57;4.30;;;-0.50;99.90;;;;;;5110184;28;20036;-69
2022/11/19 08:33:56;;;;;;;8.13;4.88;;;-0.50;99.90;;;;;;5108289;28;20052;-70
2022/11/19 08:36:22;;;;;;;9.00;4.53;;;-0.50;99.90;;;;;;5107828;28;20055;-69
2022/11/19 08:38:48;;;;;;;17.33;8.82;;;-0.40;99.90;;;;;;5087107;28;20040;-69
2022/11/19 08:44:01;;;;;;;31.20;15.18;;;-0.40;99.90;;;;;;5088378;28;20048;-69
2022/11/19 08:46:27;;;;;;;56.22;25.95;;;-0.30;99.90;;;;;;5089365;28;20040;-69
2022/11/19 08:48:53;;;;;;;52.08;21.50;;;-0.30;99.90;;;;;;5109101;28;20525;-69
2022/11/19 08:51:18;;;;;;;18.85;11.30;;;-0.20;99.90;;;;;;5107744;28;20043;-69
2022/11/19 08:53:44;;;;;;;11.80;6.40;;;-0.20;99.90;;;;;;5109301;28;20050;-69
2022/11/19 08:56:10;;;;;;;11.35;6.35;;;-0.10;99.90;;;;;;5108963;28;20467;-70
2022/11/19 08:58:35;;;;;;;9.38;5.88;;;0.00;99.90;;;;;;5108943;28;20100;-70
2022/11/19 09:01:09;;;;;;;15.15;7.25;;;0.00;99.90;;;;;;5109015;28;20047;-70
2022/11/19 09:03:34;;;;;;;13.73;7.20;;;0.00;99.90;;;;;;5107822;28;20039;-70
2022/11/19 09:06:00;;;;;;;14.23;8.50;;;0.00;99.90;;;;;;5105525;28;20039;-72
2022/11/19 09:08:27;;;;;;;10.32;6.25;;;0.10;99.90;;;;;;5105523;28;20043;-71
2022/11/19 09:10:53;;;;;;;14.48;6.32;;;0.10;99.90;;;;;;5107051;28;20035;-71
2022/11/19 09:13:19;;;;;;;10.40;6.43;;;0.10;99.90;;;;;;5107190;28;20689;-71
2022/11/19 09:15:48;;;;;;;16.45;9.60;;;0.20;99.90;;;;;;5108265;28;20123;-72
2022/11/19 09:18:15;;;;;;;17.35;9.35;;;0.20;99.90;;;;;;5089453;28;20035;-71
2022/11/19 09:20:40;;;;;;;13.63;8.07;;;0.30;99.90;;;;;;5092112;28;20036;-72
2022/11/19 09:23:06;;;;;;;25.60;16.08;;;0.30;99.90;;;;;;5109478;28;20040;-72
2022/11/19 09:25:32;;;;;;;12.13;6.45;;;0.40;99.90;;;;;;5100719;28;20044;-71
2022/11/19 09:27:58;;;;;;;12.65;7.40;;;0.40;99.90;;;;;;5107412;28;20573;-70
2022/11/19 09:30:24;;;;;;;13.20;5.95;;;0.50;99.90;;;;;;5105234;28;20047;-70
2022/11/19 09:32:50;;;;;;;14.80;7.65;;;0.60;99.90;;;;;;5109266;28;20032;-70
2022/11/19 09:35:16;;;;;;;11.73;5.03;;;0.60;99.90;;;;;;5090490;28;20139;-71
2022/11/19 09:37:42;;;;;;;19.88;9.82;;;0.70;99.90;;;;;;5108238;28;20453;-71
2022/11/19 09:40:14;;;;;;;12.98;7.75;;;0.70;99.90;;;;;;5107165;28;20040;-71
2022/11/19 09:43:10;;;;;;;14.73;8.88;;;0.80;99.90;;;;;;5090938;28;20057;-70
2022/11/19 09:46:12;;;;;;;12.95;7.63;;;0.80;99.90;;;;;;5073228;28;20055;-70
2022/11/19 09:48:38;;;;;;;16.75;7.72;;;0.90;99.90;;;;;;5108389;28;20059;-70
2022/11/19 09:51:12;;;;;;;17.08;9.40;;;0.90;99.90;;;;;;5102519;28;20461;-71
2022/11/19 09:54:04;;;;;;;25.35;13.27;;;1.00;99.90;;;;;;5078091;28;20134;-71
2022/11/19 09:56:43;;;;;;;17.02;7.00;;;1.10;99.90;;;;;;5111622;28;20140;-71
2022/11/19 09:59:27;;;;;;;52.22;21.83;;;1.10;99.90;;;;;;5113346;28;20050;-71
2022/11/19 10:01:53;;;;;;;63.35;26.08;;;1.20;99.90;;;;;;5114192;28;20069;-72
2022/11/19 10:04:25;;;;;;;45.45;17.65;;;1.20;99.90;;;;;;5115497;28;20495;-72
2022/11/19 10:06:53;;;;;;;80.53;34.75;;;1.30;99.90;;;;;;5114686;28;20036;-71
2022/11/19 10:09:42;;;;;;;19.67;9.40;;;1.30;99.90;;;;;;5113655;28;20100;-71
2022/11/19 10:12:39;;;;;;;19.23;13.43;;;1.40;99.90;;;;;;5100624;28;20388;-70
2022/11/19 10:15:25;;;;;;;10.07;6.55;;;1.40;99.90;;;;;;5105830;28;20051;-71
2022/11/19 10:18:16;;;;;;;13.45;9.50;;;1.50;99.90;;;;;;5090092;28;20564;-71
2022/11/19 10:21:03;;;;;;;13.10;9.40;;;1.60;99.90;;;;;;5108897;28;20040;-71
2022/11/19 10:23:54;;;;;;;9.70;6.57;;;1.70;99.90;;;;;;5097534;28;20047;-71
2022/11/19 10:26:31;;;;;;;8.02;4.63;;;1.70;99.90;;;;;;5096602;28;20563;-71
2022/11/19 10:28:57;;;;;;;8.75;5.32;;;1.80;99.90;;;;;;5109900;28;20058;-71
2022/11/19 10:31:33;;;;;;;8.20;4.93;;;1.90;99.90;;;;;;5111133;28;20058;-72
2022/11/19 10:34:22;;;;;;;7.40;4.38;;;1.90;99.90;;;;;;5095795;28;20047;-69
2022/11/19 10:37:06;;;;;;;10.73;4.78;;;2.00;99.90;;;;;;5113768;28;20384;-69
2022/11/19 10:40:11;;;;;;;9.65;5.55;;;2.00;99.90;;;;;;5113034;28;20555;-70
2022/11/19 10:43:15;;;;;;;8.85;4.40;;;2.00;99.90;;;;;;5013717;28;20041;-69
2022/11/19 10:45:40;;;;;;;11.77;6.07;;;2.10;99.90;;;;;;5108394;28;20044;-69
2022/11/19 10:48:13;;;;;;;8.48;4.65;;;2.10;99.90;;;;;;5111934;28;20110;-70
2022/11/19 10:50:39;;;;;;;10.18;5.43;;;2.10;99.90;;;;;;5112982;28;20036;-70
2022/11/19 10:53:20;;;;;;;9.23;5.57;;;2.20;99.90;;;;;;5095333;28;20354;-69
2022/11/19 10:55:49;;;;;;;9.43;6.00;;;2.20;99.90;;;;;;5090739;28;20497;-69
2022/11/19 10:58:38;;;;;;;7.72;4.78;;;2.30;99.90;;;;;;5099704;28;20369;-69
2022/11/19 11:01:37;;;;;;;8.07;5.07;;;2.30;99.90;;;;;;5109775;28;20039;-69
2022/11/19 11:04:12;;;;;;;7.80;4.53;;;2.30;99.90;;;;;;5090415;28;20051;-69
2022/11/19 11:06:57;;;;;;;8.43;4.57;;;2.40;99.90;;;;;;5110534;28;20039;-69
2022/11/19 11:09:33;;;;;;;8.02;4.55;;;2.40;99.90;;;;;;5110440;28;20039;-69
2022/11/19 11:15:25;;;;;;;11.32;5.22;;;2.50;99.90;;;;;;5109530;28;20509;-69
2022/11/19 11:18:09;;;;;;;9.95;5.60;;;2.50;99.90;;;;;;5111131;28;20108;-69
2022/11/19 11:20:37;;;;;;;9.27;6.07;;;2.50;99.90;;;;;;5106453;28;20043;-69
2022/11/19 11:23:04;;;;;;;7.90;4.45;;;2.60;99.90;;;;;;5109652;28;20391;-69
2022/11/19 11:25:29;;;;;;;14.15;8.52;;;2.70;99.90;;;;;;5110271;28;20513;-69
2022/11/19 11:28:13;;;;;;;10.43;6.05;;;2.80;99.90;;;;;;5110847;28;20075;-69
2022/11/19 11:31:03;;;;;;;8.00;4.25;;;2.80;99.90;;;;;;5109207;28;20138;-68
2022/11/19 11:33:37;;;;;;;10.10;4.72;;;2.70;99.90;;;;;;5097582;28;20396;-68
2022/11/19 11:36:14;;;;;;;6.72;3.97;;;2.60;99.90;;;;;;5109753;28;20054;-68
2022/11/19 11:38:49;;;;;;;8.68;3.92;;;2.60;99.90;;;;;;5092204;28;20044;-69
2022/11/19 11:41:36;;;;;;;8.15;4.75;;;2.60;99.90;;;;;;5109436;28;20043;-69
2022/11/19 11:44:12;;;;;;;8.02;3.33;;;2.70;99.90;;;;;;5108006;28;20440;-69
2022/11/19 11:46:39;;;;;;;8.07;4.43;;;2.70;99.90;;;;;;5109708;28;20036;-68
2022/11/19 11:49:10;;;;;;;12.30;6.10;;;2.70;99.90;;;;;;5109078;28;20050;-69
2022/11/19 11:51:40;;;;;;;20.20;9.70;;;2.80;99.90;;;;;;5091423;28;20704;-69
2022/11/19 11:54:19;;;;;;;12.15;7.47;;;2.80;99.90;;;;;;5108484;28;20051;-69
2022/11/19 11:56:45;;;;;;;8.93;4.40;;;2.90;99.90;;;;;;5088984;28;20040;-68
2022/11/19 11:59:24;;;;;;;8.13;4.00;;;3.00;99.90;;;;;;5107756;28;20046;-69
2022/11/19 12:02:00;;;;;;;7.78;3.85;;;3.10;99.90;;;;;;5110528;28;20031;-70
2022/11/19 12:04:26;;;;;;;21.55;12.38;;;3.10;99.90;;;;;;5108595;28;20086;-69
2022/11/19 12:07:48;;;;;;;32.17;15.57;;;3.20;99.90;;;;;;5109379;28;20086;-70
2022/11/19 12:10:20;;;;;;;19.42;9.55;;;3.10;99.90;;;;;;5010803;28;20060;-69
2022/11/19 12:13:08;;;;;;;25.98;12.55;;;3.00;99.90;;;;;;5027480;28;20049;-68
2022/11/19 12:15:58;;;;;;;43.35;23.65;;;3.00;99.90;;;;;;5062856;28;20096;-69
2022/11/19 12:18:48;;;;;;;9.13;5.22;;;3.00;99.90;;;;;;5109471;28;20543;-69
2022/11/19 12:21:42;;;;;;;9.18;4.93;;;3.00;99.90;;;;;;5108693;28;20043;-69
2022/11/19 12:24:17;;;;;;;11.23;6.50;;;3.00;99.90;;;;;;5110482;28;20570;-69
2022/11/19 12:26:48;;;;;;;7.95;4.13;;;3.00;99.90;;;;;;5109543;28;20047;-69
2022/11/19 12:29:23;;;;;;;7.75;4.30;;;3.10;99.90;;;;;;5109119;28;20052;-69
2022/11/19 12:32:13;;;;;;;9.52;4.13;;;3.00;99.90;;;;;;5097974;28;20134;-68
2022/11/19 12:34:47;;;;;;;7.75;3.97;;;3.00;99.90;;;;;;5109118;28;20578;-68
2022/11/19 12:37:30;;;;;;;7.60;4.30;;;3.00;99.90;;;;;;5106468;28;20494;-64
2022/11/19 12:40:28;;;;;;;11.25;6.18;;;3.00;99.90;;;;;;5110254;28;20047;-67
2022/11/19 12:42:54;;;;;;;7.75;4.07;;;3.00;99.90;;;;;;5089635;28;20047;-67
2022/11/19 12:45:34;;;;;;;9.52;6.15;;;3.10;99.90;;;;;;5092259;28;20043;-67
2022/11/19 12:48:28;;;;;;;10.90;5.22;;;3.10;99.90;;;;;;5107928;28;20047;-68
2022/11/19 12:51:22;;;;;;;9.15;5.20;;;3.10;99.90;;;;;;5109410;28;20081;-67
2022/11/19 12:53:53;;;;;;;7.57;4.20;;;3.10;99.90;;;;;;5110125;28;20051;-67
2022/11/19 12:56:22;;;;;;;9.02;5.07;;;3.10;99.90;;;;;;5108484;28;20040;-67
2022/11/19 12:59:17;;;;;;;7.60;4.03;;;3.10;99.90;;;;;;5109071;28;20047;-66
2022/11/19 13:01:51;;;;;;;12.10;7.07;;;3.10;99.90;;;;;;5091013;28;20043;-66
2022/11/19 13:04:31;;;;;;;14.15;6.97;;;3.10;99.90;;;;;;5107935;28;20404;-66
2022/11/19 13:07:18;;;;;;;15.85;9.70;;;3.10;99.90;;;;;;5110185;28;20055;-67
2022/11/19 13:10:01;;;;;;;10.32;6.68;;;3.10;99.90;;;;;;5109674;28;20073;-67
2022/11/19 13:12:35;;;;;;;9.15;5.80;;;3.10;99.90;;;;;;5108643;28;20472;-67
2022/11/19 13:15:19;;;;;;;9.13;4.45;;;3.20;99.90;;;;;;5105854;28;20421;-66
2022/11/19 13:17:52;;;;;;;9.68;6.03;;;3.20;99.90;;;;;;5108097;28;20054;-66
2022/11/19 13:20:27;;;;;;;8.85;6.60;;;3.20;99.90;;;;;;5110806;28;20050;-67
2022/11/19 13:22:58;;;;;;;8.65;5.88;;;3.20;99.90;;;;;;5111276;28;20145;-67
2022/11/19 13:25:33;;;;;;;11.35;6.15;;;3.20;99.90;;;;;;5091880;28;20039;-67
2022/11/19 13:28:02;;;;;;;9.38;5.15;;;3.20;99.90;;;;;;5105478;28;20046;-67
2022/11/19 13:30:30;;;;;;;10.48;5.65;;;3.20;99.90;;;;;;5112771;28;20028;-67